createdAt,value
2018-03-06T00:00:26.048Z,3.00
2018-03-06T00:02:54.324Z,3.70
2018-03-06T00:05:22.577Z,3.10
2018-03-06T00:07:50.856Z,2.63
2018-03-06T00:10:19.112Z,2.97
2018-03-06T00:12:48.148Z,2.73
2018-03-06T00:15:16.429Z,3.30
2018-03-06T00:17:44.692Z,3.30
2018-03-06T00:20:13.013Z,3.70
2018-03-06T00:22:41.272Z,3.47
2018-03-06T00:25:09.538Z,3.17
2018-03-06T00:27:37.819Z,2.90
2018-03-06T00:30:06.082Z,3.60
2018-03-06T00:32:34.336Z,3.33
2018-03-06T00:35:02.616Z,3.43
2018-03-06T00:37:30.863Z,4.20
2018-03-06T00:39:59.896Z,3.60
2018-03-06T00:42:28.171Z,4.00
2018-03-06T00:44:56.471Z,6.40
2018-03-06T00:47:24.744Z,5.10
2018-03-06T00:49:53.028Z,4.17
2018-03-06T00:52:21.299Z,3.57
2018-03-06T00:54:49.564Z,3.47
2018-03-06T00:57:17.839Z,3.13
2018-03-06T00:59:46.131Z,3.50
2018-03-06T01:02:14.407Z,3.87
2018-03-06T01:04:42.660Z,3.70
2018-03-06T01:07:10.932Z,4.70
2018-03-06T01:09:39.203Z,4.17
2018-03-06T01:12:07.467Z,3.70
2018-03-06T01:14:35.740Z,3.53
2018-03-06T01:17:04.108Z,4.37
2018-03-06T01:19:33.135Z,3.53
2018-03-06T01:22:01.400Z,3.50
2018-03-06T01:24:29.683Z,3.67
2018-03-06T01:26:57.959Z,4.23
2018-03-06T01:29:26.221Z,3.63
2018-03-06T01:31:54.508Z,3.30
2018-03-06T01:34:22.765Z,3.60
2018-03-06T01:36:51.052Z,4.23
2018-03-06T01:39:19.344Z,4.50
2018-03-06T01:41:47.612Z,3.80
2018-03-06T01:44:15.893Z,4.10
2018-03-06T01:46:44.161Z,2.90
2018-03-06T01:49:12.425Z,3.45
2018-03-06T01:51:58.547Z,3.67
2018-03-06T01:54:27.577Z,4.10
2018-03-06T01:56:55.849Z,3.50
2018-03-06T01:59:24.141Z,4.47
2018-03-06T02:01:53.187Z,3.60
2018-03-06T02:04:21.451Z,4.07
2018-03-06T02:06:49.718Z,4.40
2018-03-06T02:09:18.004Z,4.57
2018-03-06T02:11:46.266Z,3.93
2018-03-06T02:14:14.591Z,3.60
2018-03-06T02:16:42.868Z,3.90
2018-03-06T02:19:11.185Z,3.80
2018-03-06T02:21:39.452Z,3.50
2018-03-06T02:24:08.480Z,3.00
2018-03-06T02:26:36.763Z,3.07
2018-03-06T02:29:05.040Z,3.93
2018-03-06T02:31:33.304Z,3.40
2018-03-06T02:34:01.592Z,4.03
2018-03-06T02:36:29.877Z,3.33
2018-03-06T02:38:58.133Z,4.00
2018-03-06T02:41:26.392Z,4.90
2018-03-06T02:43:54.671Z,5.20
2018-03-06T02:46:22.939Z,4.30
2018-03-06T02:48:51.228Z,6.20
2018-03-06T02:51:19.511Z,4.57
2018-03-06T02:53:47.771Z,4.83
2018-03-06T02:56:16.056Z,4.53
2018-03-06T02:58:44.341Z,4.50
2018-03-06T03:01:12.618Z,4.23
2018-03-06T03:03:40.928Z,4.37
2018-03-06T03:06:09.235Z,4.57
2018-03-06T03:08:38.268Z,5.53
2018-03-06T03:11:06.556Z,5.37
2018-03-06T03:13:34.828Z,4.10
2018-03-06T03:16:03.111Z,4.07
2018-03-06T03:18:31.398Z,4.10
2018-03-06T03:21:00.428Z,4.20
2018-03-06T03:23:29.483Z,3.70
2018-03-06T03:25:57.768Z,5.00
2018-03-06T03:28:26.049Z,4.07
2018-03-06T03:30:54.326Z,3.83
2018-03-06T03:33:22.633Z,5.13
2018-03-06T03:35:51.843Z,6.70
2018-03-06T03:38:20.126Z,8.10
2018-03-06T03:40:48.425Z,6.27
2018-03-06T03:43:16.715Z,5.93
2018-03-06T03:45:44.984Z,4.20
2018-03-06T03:48:14.291Z,4.18
2018-03-06T03:50:42.612Z,4.80
2018-03-06T03:53:11.634Z,3.80
2018-03-06T03:55:39.920Z,4.70
2018-03-06T03:58:08.198Z,5.37
2018-03-06T04:00:36.493Z,3.60
2018-03-06T04:03:04.790Z,4.73
2018-03-06T04:05:33.098Z,4.60
2018-03-06T04:08:01.392Z,4.77
2018-03-06T04:10:29.668Z,5.03
2018-03-06T04:12:57.929Z,4.80
2018-03-06T04:15:26.204Z,4.97
2018-03-06T04:17:54.511Z,5.30
2018-03-06T04:20:22.791Z,4.27
2018-03-06T04:22:51.087Z,4.50
2018-03-06T04:25:19.356Z,4.83
2018-03-06T04:27:47.654Z,4.20
2018-03-06T04:30:15.944Z,5.10
2018-03-06T04:32:44.977Z,5.00
2018-03-06T04:35:13.240Z,4.30
2018-03-06T04:37:41.536Z,4.80
2018-03-06T04:40:09.834Z,4.73
2018-03-06T04:42:38.098Z,5.13
2018-03-06T04:45:06.388Z,4.90
2018-03-06T04:47:34.652Z,4.47
2018-03-06T04:50:02.948Z,5.17
2018-03-06T04:52:31.221Z,5.60
2018-03-06T04:54:59.490Z,4.40
2018-03-06T04:57:27.812Z,4.73
2018-03-06T04:59:56.079Z,4.40
2018-03-06T05:02:25.121Z,3.97
2018-03-06T05:04:53.411Z,4.57
2018-03-06T05:07:21.691Z,4.53
2018-03-06T05:09:49.975Z,4.70
2018-03-06T05:12:18.262Z,4.50
2018-03-06T05:14:46.533Z,5.43
2018-03-06T05:17:14.811Z,4.80
2018-03-06T05:19:43.876Z,5.40
2018-03-06T05:22:12.149Z,4.93
2018-03-06T05:24:40.416Z,4.30
2018-03-06T05:27:08.708Z,4.50
2018-03-06T05:29:36.971Z,4.60
2018-03-06T05:32:05.228Z,4.97
2018-03-06T05:34:33.535Z,4.30
2018-03-06T05:37:01.805Z,4.47
2018-03-06T05:39:30.071Z,4.90
2018-03-06T05:41:58.354Z,4.53
2018-03-06T05:44:26.619Z,5.30
2018-03-06T05:46:54.895Z,3.70
2018-03-06T05:49:23.179Z,4.77
2018-03-06T05:51:51.452Z,4.90
2018-03-06T05:54:19.717Z,4.30
2018-03-06T05:56:48.007Z,3.80
2018-03-06T05:59:16.275Z,5.17
2018-03-06T06:01:44.556Z,5.73
2018-03-06T06:04:12.843Z,4.27
2018-03-06T06:06:41.104Z,5.00
2018-03-06T06:09:09.436Z,5.40
2018-03-06T06:11:38.492Z,5.60
2018-03-06T06:14:06.772Z,4.97
2018-03-06T06:16:35.044Z,5.43
2018-03-06T06:19:03.325Z,6.40
2018-03-06T06:21:31.650Z,8.20
2018-03-06T06:24:00.685Z,9.30
2018-03-06T06:26:28.964Z,8.20
2018-03-06T06:28:57.228Z,6.97
2018-03-06T06:31:25.484Z,5.13
2018-03-06T06:33:53.787Z,6.17
2018-03-06T06:36:22.059Z,5.47
2018-03-06T06:38:50.329Z,6.33
2018-03-06T06:41:18.621Z,5.83
2018-03-06T06:43:46.910Z,5.90
2018-03-06T06:46:15.211Z,6.50
2018-03-06T06:48:43.513Z,6.30
2018-03-06T06:51:11.773Z,5.30
2018-03-06T06:53:40.847Z,6.43
2018-03-06T06:56:09.134Z,5.50
2018-03-06T06:58:38.909Z,5.93
2018-03-06T07:01:07.164Z,5.50
2018-03-06T07:03:35.472Z,5.33
2018-03-06T07:06:03.748Z,5.50
2018-03-06T07:08:32.020Z,6.63
2018-03-06T07:11:00.312Z,5.57
2018-03-06T07:13:28.600Z,6.00
2018-03-06T07:15:56.869Z,5.67
2018-03-06T07:18:25.181Z,6.60
2018-03-06T07:20:54.200Z,6.07
2018-03-06T07:23:22.472Z,5.55
2018-03-06T07:25:50.739Z,5.47
2018-03-06T07:28:18.992Z,6.20
2018-03-06T07:30:48.036Z,5.40
2018-03-06T07:33:17.549Z,6.30
2018-03-06T07:35:45.801Z,6.00
2018-03-06T07:38:14.054Z,5.60
2018-03-06T07:40:43.083Z,6.73
2018-03-06T07:43:11.337Z,6.57
2018-03-06T07:45:39.596Z,7.87
2018-03-06T07:48:08.628Z,8.23
2018-03-06T07:50:36.888Z,7.97
2018-03-06T07:53:05.148Z,10.03
2018-03-06T07:55:33.451Z,7.03
2018-03-06T07:58:01.705Z,6.10
2018-03-06T08:00:29.962Z,5.40
2018-03-06T08:02:59.000Z,5.27
2018-03-06T08:05:27.267Z,5.60
2018-03-06T08:07:55.526Z,5.03
2018-03-06T08:10:23.796Z,5.80
2018-03-06T08:12:52.055Z,5.87
2018-03-06T08:15:21.072Z,6.33
2018-03-06T08:17:49.403Z,8.23
2018-03-06T08:20:17.668Z,6.07
2018-03-06T08:22:45.924Z,5.43
2018-03-06T08:25:14.222Z,6.17
2018-03-06T08:27:42.475Z,6.43
2018-03-06T08:30:10.744Z,6.47
2018-03-06T08:32:39.000Z,5.53
2018-03-06T08:35:07.254Z,8.23
2018-03-06T08:37:36.269Z,6.67
2018-03-06T08:40:04.537Z,7.33
2018-03-06T08:42:33.571Z,6.30
2018-03-06T08:45:01.855Z,6.47
2018-03-06T08:47:30.921Z,7.23
2018-03-06T08:49:59.172Z,6.70
2018-03-06T08:52:28.196Z,8.30
2018-03-06T08:54:56.468Z,7.30
2018-03-06T08:57:24.726Z,6.63
2018-03-06T08:59:52.987Z,7.70
2018-03-06T09:02:22.028Z,10.40
2018-03-06T09:04:50.286Z,8.30
2018-03-06T09:07:18.542Z,6.40
2018-03-06T09:09:47.572Z,7.20
2018-03-06T09:12:15.841Z,7.57
2018-03-06T09:14:44.102Z,6.60
2018-03-06T09:17:12.415Z,7.80
2018-03-06T09:19:40.667Z,7.60
2018-03-06T09:22:08.975Z,7.70
2018-03-06T09:24:37.243Z,8.47
2018-03-06T09:27:05.493Z,7.33
2018-03-06T09:29:33.761Z,8.37
2018-03-06T09:32:02.023Z,8.70
2018-03-06T09:34:31.062Z,8.80
2018-03-06T09:36:59.318Z,8.30
2018-03-06T09:39:27.605Z,8.73
2018-03-06T09:41:55.856Z,9.77
2018-03-06T09:44:24.112Z,9.33
2018-03-06T09:46:53.156Z,8.80
2018-03-06T09:49:21.415Z,9.33
2018-03-06T09:51:49.668Z,8.33
2018-03-06T09:54:17.936Z,9.17
2018-03-06T09:56:47.052Z,10.70
2018-03-06T09:59:15.300Z,8.73
2018-03-06T10:01:44.337Z,8.90
2018-03-06T10:04:12.591Z,9.17
2018-03-06T10:06:40.851Z,8.87
2018-03-06T10:09:09.973Z,9.70
2018-03-06T10:11:38.228Z,8.17
2018-03-06T10:14:06.484Z,11.53
2018-03-06T10:16:35.529Z,10.47
2018-03-06T10:19:03.780Z,11.80
2018-03-06T10:21:32.031Z,11.30
2018-03-06T10:24:01.076Z,12.10
2018-03-06T10:26:29.368Z,10.30
2018-03-06T10:28:57.626Z,11.83
2018-03-06T10:31:25.912Z,11.27
2018-03-06T10:33:54.172Z,12.87
2018-03-06T10:36:22.450Z,12.63
2018-03-06T10:38:50.727Z,12.47
2018-03-06T10:41:18.984Z,13.63
2018-03-06T10:43:47.249Z,13.60
2018-03-06T10:46:16.280Z,14.53
2018-03-06T10:48:44.561Z,15.43
2018-03-06T10:51:12.832Z,15.87
2018-03-06T10:53:41.116Z,16.03
2018-03-06T10:56:09.484Z,16.20
2018-03-06T10:58:37.760Z,20.10
2018-03-06T11:01:06.028Z,17.87
2018-03-06T11:03:34.298Z,17.37
2018-03-06T11:06:03.446Z,17.53
2018-03-06T11:08:31.713Z,17.00
2018-03-06T11:11:00.761Z,16.13
2018-03-06T11:13:29.031Z,16.37
2018-03-06T11:15:57.304Z,14.83
2018-03-06T11:18:25.651Z,15.20
2018-03-06T11:20:53.851Z,17.30
2018-03-06T11:23:22.124Z,13.93
2018-03-06T11:25:50.401Z,14.67
2018-03-06T11:28:20.363Z,14.68
2018-03-06T11:30:48.641Z,15.20
2018-03-06T11:33:16.908Z,14.30
2018-03-06T11:35:45.165Z,15.40
2018-03-06T11:38:13.446Z,15.63
2018-03-06T11:40:41.703Z,14.87
2018-03-06T11:43:09.968Z,14.67
2018-03-06T11:45:38.299Z,16.70
2018-03-06T11:48:06.584Z,14.60
2018-03-06T11:50:34.857Z,14.93
2018-03-06T11:53:03.131Z,14.80
2018-03-06T11:55:31.413Z,14.30
2018-03-06T11:57:59.684Z,14.60
2018-03-06T12:00:27.980Z,15.07
2018-03-06T12:02:56.255Z,17.47
2018-03-06T12:05:24.553Z,17.33
2018-03-06T12:07:53.584Z,20.83
2018-03-06T12:10:21.851Z,21.10
2018-03-06T12:12:50.132Z,23.50
2018-03-06T12:15:18.399Z,22.43
2018-03-06T12:17:46.684Z,24.90
2018-03-06T12:20:14.967Z,22.57
2018-03-06T12:22:43.236Z,25.70
2018-03-06T12:25:11.500Z,21.93
2018-03-06T12:27:39.884Z,20.07
2018-03-06T12:30:08.176Z,18.33
2018-03-06T12:32:36.424Z,17.93
2018-03-06T12:35:04.748Z,13.93
2018-03-06T12:37:33.004Z,12.80
2018-03-06T12:40:01.302Z,13.03
2018-03-06T12:42:29.574Z,11.77
2018-03-06T12:44:57.857Z,14.50
2018-03-06T12:47:26.144Z,15.73
2018-03-06T12:49:54.428Z,14.98
2018-03-06T12:52:23.468Z,13.67
2018-03-06T12:54:51.803Z,14.00
2018-03-06T12:57:20.044Z,15.03
2018-03-06T12:59:48.315Z,13.50
2018-03-06T13:02:16.611Z,14.13
2018-03-06T13:04:44.867Z,14.83
2018-03-06T13:07:13.174Z,14.30
2018-03-06T13:09:41.441Z,14.30
2018-03-06T13:12:09.699Z,13.80
2018-03-06T13:14:38.001Z,14.63
2018-03-06T13:17:06.271Z,13.23
2018-03-06T13:19:35.305Z,13.85
2018-03-06T13:22:03.584Z,14.27
2018-03-06T13:24:31.858Z,12.90
2018-03-06T13:27:00.126Z,12.87
2018-03-06T13:29:29.173Z,11.67
2018-03-06T13:31:57.439Z,12.10
2018-03-06T13:34:25.717Z,12.37
2018-03-06T13:36:54.004Z,11.60
2018-03-06T13:39:22.268Z,11.40
2018-03-06T13:41:50.535Z,12.53
2018-03-06T13:44:18.825Z,11.80
2018-03-06T13:46:47.096Z,12.53
2018-03-06T13:49:15.381Z,12.70
2018-03-06T13:51:43.651Z,10.17
2018-03-06T13:54:11.948Z,12.10
2018-03-06T13:56:40.218Z,11.10
2018-03-06T13:59:08.500Z,9.57
2018-03-06T14:01:36.761Z,9.60
2018-03-06T14:04:05.026Z,9.30
2018-03-06T14:06:33.301Z,9.30
2018-03-06T14:09:01.565Z,9.80
2018-03-06T14:11:29.828Z,10.73
2018-03-06T14:13:58.124Z,9.23
2018-03-06T14:16:26.400Z,10.47
2018-03-06T14:18:54.672Z,10.50
2018-03-06T14:21:22.962Z,11.37
2018-03-06T14:23:51.224Z,9.63
2018-03-06T14:26:19.488Z,11.73
2018-03-06T14:28:47.776Z,13.27
2018-03-06T14:31:16.040Z,11.87
2018-03-06T14:33:44.320Z,12.10
2018-03-06T14:36:12.612Z,10.30
2018-03-06T14:38:40.875Z,11.53
2018-03-06T14:41:09.245Z,10.77
2018-03-06T14:43:37.536Z,12.10
2018-03-06T14:46:05.804Z,11.07
2018-03-06T14:48:34.072Z,9.97
2018-03-06T14:51:02.380Z,10.23
2018-03-06T14:53:30.643Z,11.00
2018-03-06T14:55:58.925Z,11.30
2018-03-06T14:58:28.233Z,11.45
2018-03-06T15:00:56.499Z,13.17
2018-03-06T15:03:24.771Z,11.47
2018-03-06T15:05:53.064Z,12.77
2018-03-06T15:08:21.338Z,13.03
2018-03-06T15:10:49.609Z,11.88
2018-03-06T15:13:17.958Z,12.20
2018-03-06T15:15:46.248Z,14.27
2018-03-06T15:18:14.505Z,13.20
2018-03-06T15:20:42.795Z,12.90
2018-03-06T15:23:11.068Z,13.40
2018-03-06T15:25:39.372Z,11.70
2018-03-06T15:28:07.656Z,12.63
2018-03-06T15:30:35.928Z,11.90
2018-03-06T15:33:04.276Z,11.97
2018-03-06T15:35:32.573Z,10.67
2018-03-06T15:38:00.837Z,11.27
2018-03-06T15:40:29.107Z,11.07
2018-03-06T15:42:57.418Z,11.90
2018-03-06T15:45:25.755Z,11.10
2018-03-06T15:47:54.740Z,9.90
2018-03-06T15:50:23.028Z,11.33
2018-03-06T15:52:51.328Z,10.83
2018-03-06T15:55:19.626Z,12.20
2018-03-06T15:57:47.917Z,10.37
2018-03-06T16:00:16.969Z,9.20
2018-03-06T16:02:45.270Z,10.43
2018-03-06T16:05:13.701Z,9.53
2018-03-06T16:07:42.267Z,12.63
2018-03-06T16:10:10.674Z,11.90
2018-03-06T16:12:38.992Z,11.63
2018-03-06T16:15:09.172Z,13.10
2018-03-06T16:17:38.035Z,12.23
2018-03-06T16:20:06.839Z,12.30
2018-03-06T16:22:35.695Z,12.00
2018-03-06T16:25:04.727Z,11.13
2018-03-06T16:27:34.329Z,10.53
2018-03-06T16:30:03.920Z,11.00
2018-03-06T16:32:33.687Z,10.27
2018-03-06T16:35:03.086Z,10.33
2018-03-06T16:37:32.873Z,11.03
2018-03-06T16:40:03.524Z,10.77
2018-03-06T16:42:33.654Z,10.07
2018-03-06T16:45:03.564Z,11.20
2018-03-06T16:47:33.317Z,11.20
2018-03-06T16:50:02.738Z,10.33
2018-03-06T16:52:32.769Z,9.33
2018-03-06T16:55:03.415Z,9.80
2018-03-06T16:57:33.188Z,8.80
2018-03-06T17:00:02.970Z,10.27
2018-03-06T17:02:32.976Z,9.60
2018-03-06T17:05:02.760Z,8.77
2018-03-06T17:07:32.615Z,10.47
2018-03-06T17:10:02.607Z,9.60
2018-03-06T17:12:32.464Z,8.90
2018-03-06T17:15:02.494Z,9.77
2018-03-06T17:17:33.111Z,9.40
2018-03-06T17:20:03.112Z,8.88
2018-03-06T17:22:32.837Z,9.17
2018-03-06T17:25:02.771Z,10.17
2018-03-06T17:27:33.344Z,10.03
2018-03-06T17:30:03.412Z,11.18
2018-03-06T17:32:33.294Z,9.57
2018-03-06T17:35:03.143Z,8.97
2018-03-06T17:37:33.976Z,9.17
2018-03-06T17:40:04.609Z,11.07
2018-03-06T17:42:35.420Z,11.03
2018-03-06T17:45:05.350Z,11.37
2018-03-06T17:47:36.121Z,12.93
2018-03-06T17:50:06.326Z,15.43
2018-03-06T17:52:36.653Z,16.33
2018-03-06T17:55:07.201Z,14.87
2018-03-06T17:57:37.050Z,13.13
2018-03-06T18:00:07.007Z,11.60
2018-03-06T18:02:36.931Z,12.90
2018-03-06T18:05:06.659Z,14.10
2018-03-06T18:07:36.728Z,12.50
2018-03-06T18:10:07.478Z,13.07
2018-03-06T18:12:38.010Z,12.30
2018-03-06T18:15:08.709Z,13.73
2018-03-06T18:17:38.756Z,11.50
2018-03-06T18:20:09.393Z,12.47
2018-03-06T18:22:40.272Z,11.40
2018-03-06T18:25:10.266Z,11.63
2018-03-06T18:27:40.029Z,11.50
2018-03-06T18:30:09.964Z,11.70
2018-03-06T18:32:40.822Z,12.10
2018-03-06T18:35:10.939Z,14.47
2018-03-06T18:37:41.700Z,12.10
2018-03-06T18:40:11.673Z,12.30
2018-03-06T18:42:42.844Z,12.33
2018-03-06T18:45:12.802Z,13.37
2018-03-06T18:47:43.294Z,11.77
2018-03-06T18:50:30.789Z,12.50
2018-03-06T18:53:01.733Z,12.00
2018-03-06T18:55:31.550Z,14.80
2018-03-06T18:58:01.484Z,12.50
2018-03-06T19:04:02.470Z,12.53
2018-03-06T19:09:46.819Z,11.47
2018-03-06T19:12:16.764Z,11.53
2018-03-06T19:14:46.641Z,11.30
2018-03-06T19:17:16.941Z,11.40
2018-03-06T19:19:47.765Z,12.83
2018-03-06T19:22:18.642Z,12.47
2018-03-06T19:24:48.730Z,10.90
2018-03-06T19:27:18.748Z,12.40
2018-03-06T19:29:49.259Z,11.57
2018-03-06T19:32:19.038Z,12.07
2018-03-06T19:34:49.914Z,11.33
2018-03-06T19:37:21.367Z,12.70
2018-03-06T19:39:51.076Z,14.20
2018-03-06T19:42:22.762Z,13.00
2018-03-06T19:44:52.974Z,13.50
2018-03-06T19:47:22.998Z,12.30
2018-03-06T19:49:53.021Z,12.40
2018-03-06T19:52:23.047Z,11.87
2018-03-06T19:54:52.966Z,14.67
2018-03-06T19:57:23.105Z,11.53
2018-03-06T19:59:52.966Z,12.27
2018-03-06T20:02:23.744Z,12.50
2018-03-06T20:04:53.871Z,12.07
2018-03-06T20:07:24.059Z,12.17
2018-03-06T20:09:54.061Z,12.75
2018-03-06T20:12:23.923Z,12.40
2018-03-06T20:14:58.982Z,14.67
2018-03-06T20:17:29.790Z,15.03
2018-03-06T20:19:59.775Z,15.50
2018-03-06T20:22:30.595Z,14.30
2018-03-06T20:25:06.624Z,13.40
2018-03-06T20:27:39.303Z,12.67
2018-03-06T20:30:10.208Z,12.40
2018-03-06T20:32:45.398Z,12.57
2018-03-06T20:35:15.990Z,12.40
2018-03-06T20:37:47.669Z,12.57
2018-03-06T20:40:23.702Z,15.27
2018-03-06T20:42:53.881Z,14.27
2018-03-06T20:45:23.658Z,12.80
2018-03-06T20:47:55.364Z,13.90
2018-03-06T20:50:25.462Z,11.30
2018-03-06T20:53:00.679Z,12.40
2018-03-06T20:55:31.232Z,10.97
2018-03-06T20:58:01.394Z,13.63
2018-03-06T21:00:32.184Z,11.77
2018-03-06T21:03:03.735Z,12.37
2018-03-06T21:05:33.835Z,12.40
2018-03-06T21:08:03.962Z,11.73
2018-03-06T21:10:34.086Z,13.27
2018-03-06T21:13:03.693Z,12.03
2018-03-06T21:15:34.666Z,12.07
2018-03-06T21:18:04.671Z,11.90
2018-03-06T21:20:34.775Z,12.20
2018-03-06T21:23:04.654Z,11.77
2018-03-06T21:25:34.545Z,11.60
2018-03-06T21:28:04.515Z,11.63
2018-03-06T21:30:34.636Z,11.90
2018-03-06T21:33:04.678Z,11.70
2018-03-06T21:35:34.552Z,12.00
2018-03-06T21:38:05.489Z,11.17
2018-03-06T21:40:36.155Z,12.33
2018-03-06T21:43:06.175Z,10.43
2018-03-06T21:45:36.177Z,11.83
2018-03-06T21:48:06.336Z,11.40
2018-03-06T21:50:36.208Z,11.10
2018-03-06T21:53:06.041Z,11.97
2018-03-06T21:55:36.175Z,11.90
2018-03-06T21:58:06.407Z,12.60
2018-03-06T22:00:36.509Z,12.27
2018-03-06T22:03:06.453Z,11.30
2018-03-06T22:05:36.290Z,11.57
2018-03-06T22:08:06.307Z,13.07
2018-03-06T22:10:36.970Z,13.50
2018-03-06T22:13:06.824Z,11.80
2018-03-06T22:15:36.765Z,11.90
2018-03-06T22:18:06.594Z,10.67
2018-03-06T22:20:36.489Z,13.53
2018-03-06T22:23:06.147Z,12.37
2018-03-06T22:25:35.778Z,10.80
2018-03-06T22:28:04.916Z,10.30
2018-03-06T22:30:34.379Z,10.87
2018-03-06T22:33:02.798Z,10.07
2018-03-06T22:35:31.118Z,10.27
2018-03-06T22:37:59.400Z,10.60
2018-03-06T22:40:27.692Z,10.70
2018-03-06T22:42:56.716Z,11.50
2018-03-06T22:45:24.997Z,11.50
2018-03-06T22:47:53.275Z,11.30
2018-03-06T22:50:21.539Z,10.25
2018-03-06T22:52:49.829Z,10.13
2018-03-06T22:55:18.089Z,10.83
2018-03-06T22:57:46.385Z,11.23
2018-03-06T23:00:14.666Z,14.27
2018-03-06T23:02:42.957Z,11.27
2018-03-06T23:05:11.183Z,11.30
2018-03-06T23:07:40.280Z,11.47
2018-03-06T23:10:08.583Z,11.20
2018-03-06T23:12:37.631Z,12.30
2018-03-06T23:15:05.896Z,12.00
2018-03-06T23:17:34.220Z,12.67
2018-03-06T23:20:02.523Z,10.70
2018-03-06T23:22:30.767Z,12.70
2018-03-06T23:24:59.010Z,12.90
2018-03-06T23:27:27.282Z,12.93
2018-03-06T23:29:55.614Z,13.82
2018-03-06T23:32:23.870Z,11.23
2018-03-06T23:34:52.143Z,11.73
2018-03-06T23:37:20.414Z,11.10
2018-03-06T23:39:48.692Z,10.97
2018-03-06T23:42:16.935Z,10.43
2018-03-06T23:44:45.211Z,10.03
2018-03-06T23:47:13.459Z,12.17
2018-03-06T23:49:41.715Z,10.90
2018-03-06T23:52:09.981Z,12.27
2018-03-06T23:54:38.235Z,12.10
2018-03-06T23:57:07.542Z,13.43
2018-03-06T23:59:35.808Z,12.70
